Time;durP1;ratioP1;P1;durP2;ratioP2;P2;SDS_P1;SDS_P2;PMS_P1;PMS_P2;Temp;Humidity;BMP_temperature;BMP_pressure;BME280_temperature;BME280_humidity;BME280_pressure;Samples;Min_cycle;Max_cycle;Signal;HPM_P1;HPM_P2
2022/06/26 00:00:38;;;;;;;0.43;0.43;;;;;;;20.69;75.47;95209.75;4348331;32;20206;-55
2022/06/26 00:03:04;;;;;;;0.73;0.73;;;;;;;20.67;75.49;95208.56;4344376;32;20201;-54
2022/06/26 00:05:31;;;;;;;0.40;0.40;;;;;;;20.63;75.73;95210.41;4348893;32;20203;-53
2022/06/26 00:07:56;;;;;;;0.47;0.47;;;;;;;20.50;75.74;95216.00;4339705;32;20221;-54
2022/06/26 00:10:21;;;;;;;0.70;0.70;;;;;;;20.46;76.16;95207.06;4347699;32;20219;-56
2022/06/26 00:12:49;;;;;;;0.50;0.50;;;;;;;20.45;75.77;95205.50;4334587;32;20185;-58
2022/06/26 00:15:15;;;;;;;0.60;0.60;;;;;;;20.37;76.13;95203.81;4337036;32;20180;-52
2022/06/26 00:17:41;;;;;;;0.30;0.30;;;;;;;20.47;76.02;95213.22;4360141;32;20211;-54
2022/06/26 00:20:13;;;;;;;0.57;0.57;;;;;;;20.56;76.26;95211.88;4357636;32;20268;-53
2022/06/26 00:22:40;;;;;;;0.33;0.33;;;;;;;20.60;76.23;95220.00;4376843;32;20216;-52
2022/06/26 00:25:08;;;;;;;0.30;0.30;;;;;;;20.57;76.41;95218.81;4336702;32;20193;-53
2022/06/26 00:27:35;;;;;;;0.30;0.30;;;;;;;20.52;76.70;95218.34;4349229;32;20194;-53
2022/06/26 00:30:02;;;;;;;0.73;0.53;;;;;;;20.55;76.38;95225.72;4331296;32;20204;-55
2022/06/26 00:32:29;;;;;;;0.40;0.40;;;;;;;20.47;76.36;95230.19;4326652;32;20295;-54
2022/06/26 00:35:05;;;;;;;1.80;1.23;;;;;;;20.36;77.42;95225.72;4345484;32;20203;-51
2022/06/26 00:37:32;;;;;;;0.70;0.50;;;;;;;20.30;77.55;95219.84;4356674;32;20260;-54
2022/06/26 00:39:59;;;;;;;0.60;0.60;;;;;;;20.42;77.33;95222.37;4312221;32;20216;-53
2022/06/26 00:42:32;;;;;;;0.10;0.10;;;;;;;20.50;77.13;95221.37;4346260;32;20206;-53
2022/06/26 00:44:57;;;;;;;2.00;1.07;;;;;;;20.39;77.43;95220.41;4349266;32;20208;-54
2022/06/26 00:47:24;;;;;;;0.40;0.40;;;;;;;20.40;77.83;95221.97;4362807;32;20185;-51
2022/06/26 00:49:52;;;;;;;0.53;0.50;;;;;;;20.30;77.02;95236.00;4358788;32;20228;-54
2022/06/26 00:52:19;;;;;;;0.63;0.63;;;;;;;20.25;77.90;95233.59;4323184;32;20197;-53
2022/06/26 00:54:50;;;;;;;0.30;0.30;;;;;;;20.17;78.04;95224.59;4322177;32;20211;-54
2022/06/26 00:57:21;;;;;;;1.10;0.77;;;;;;;20.17;77.73;95231.91;4324313;32;20248;-50
2022/06/26 00:59:48;;;;;;;0.60;0.60;;;;;;;20.26;78.05;95232.47;4330026;32;20202;-53
2022/06/26 01:02:15;;;;;;;0.43;0.43;;;;;;;20.28;77.68;95234.81;4333132;32;20231;-54
2022/06/26 01:04:42;;;;;;;0.50;0.50;;;;;;;20.33;78.11;95237.22;4341924;32;20224;-54
2022/06/26 01:07:09;;;;;;;0.70;0.70;;;;;;;20.25;78.16;95236.28;4345406;32;20200;-51
2022/06/26 01:09:35;;;;;;;0.40;0.40;;;;;;;20.28;78.23;95232.09;4338724;32;20210;-53
2022/06/26 01:12:02;;;;;;;0.57;0.57;;;;;;;20.32;78.18;95232.97;4339978;32;20192;-53
2022/06/26 01:14:30;;;;;;;0.50;0.50;;;;;;;20.34;78.17;95230.69;4340499;32;20243;-53
2022/06/26 01:16:59;;;;;;;0.40;0.40;;;;;;;20.36;78.13;95234.59;4347631;32;20197;-52
2022/06/26 01:19:26;;;;;;;0.63;0.63;;;;;;;20.31;78.74;95231.41;4334192;32;20189;-52
2022/06/26 01:21:52;;;;;;;0.50;0.50;;;;;;;20.41;77.78;95226.22;4321366;32;20258;-55
2022/06/26 01:24:18;;;;;;;0.70;0.50;;;;;;;20.22;78.76;95229.69;4326091;32;20217;-55
2022/06/26 01:26:44;;;;;;;0.50;0.50;;;;;;;20.13;78.67;95231.06;4309896;33;20201;-55
2022/06/26 01:29:10;;;;;;;0.30;0.30;;;;;;;20.37;78.39;95230.75;4352439;32;20193;-52
2022/06/26 01:31:37;;;;;;;0.47;0.47;;;;;;;20.33;78.16;95235.31;4324912;32;20243;-54
2022/06/26 01:34:09;;;;;;;0.30;0.30;;;;;;;20.32;78.18;95235.66;4325527;32;20267;-54
2022/06/26 01:36:37;;;;;;;0.87;0.87;;;;;;;20.30;78.86;95237.94;4314816;32;20185;-48
2022/06/26 01:39:05;;;;;;;0.80;0.80;;;;;;;20.29;79.02;95233.66;4338195;32;20186;-55
2022/06/26 01:41:32;;;;;;;0.93;0.93;;;;;;;20.22;78.21;95231.63;4316263;33;20244;-51
2022/06/26 01:43:59;;;;;;;1.07;0.73;;;;;;;20.28;79.04;95238.28;4329334;32;20212;-52
2022/06/26 01:46:26;;;;;;;0.50;0.50;;;;;;;20.36;78.62;95226.50;4333284;32;20197;-50
2022/06/26 01:48:56;;;;;;;0.53;0.53;;;;;;;20.25;78.33;95236.28;4299088;32;20189;-52
2022/06/26 01:51:24;;;;;;;0.27;0.27;;;;;;;20.14;79.37;95236.09;4309462;32;20197;-53
2022/06/26 01:53:50;;;;;;;0.50;0.50;;;;;;;20.28;79.05;95232.88;4336989;32;20242;-55
2022/06/26 01:56:18;;;;;;;0.50;0.50;;;;;;;20.27;79.09;95225.16;4332925;32;20181;-51
2022/06/26 01:58:54;;;;;;;0.53;0.53;;;;;;;20.12;79.54;95232.22;4336942;32;20305;-54
2022/06/26 02:01:20;;;;;;;0.40;0.40;;;;;;;20.22;79.25;95228.91;4329347;32;20191;-54
2022/06/26 02:03:46;;;;;;;0.43;0.43;;;;;;;20.14;79.71;95235.34;4345324;32;20243;-52
2022/06/26 02:06:11;;;;;;;0.23;0.23;;;;;;;20.24;79.46;95229.34;4319587;32;20181;-51
2022/06/26 02:08:40;;;;;;;0.13;0.13;;;;;;;20.27;79.33;95220.56;4347025;32;20304;-52
2022/06/26 02:13:54;;;;;;;6.53;0.80;;;;;;;20.11;79.17;95222.56;4326698;32;20269;-54
2022/06/26 02:16:28;;;;;;;1.03;0.93;;;;;;;20.05;80.26;95221.28;4348101;32;20215;-53
2022/06/26 02:18:57;;;;;;;0.30;0.30;;;;;;;20.19;79.81;95213.47;4320358;32;20201;-53
2022/06/26 02:21:25;;;;;;;0.43;0.43;;;;;;;20.27;80.17;95220.56;4358970;32;20256;-54
2022/06/26 02:23:52;;;;;;;0.67;0.67;;;;;;;20.41;79.40;95228.91;4352334;32;20211;-53
2022/06/26 02:26:25;;;;;;;0.53;0.53;;;;;;;20.08;78.86;95242.12;4322535;32;20184;-55
2022/06/26 02:28:51;;;;;;;0.20;0.20;;;;;;;20.15;79.35;95237.66;4340966;32;20248;-50
2022/06/26 02:31:17;;;;;;;0.43;0.43;;;;;;;20.22;80.00;95239.69;4347676;32;20216;-63
2022/06/26 02:33:43;;;;;;;0.50;0.50;;;;;;;20.15;80.09;95255.75;4354792;32;20250;-53
2022/06/26 02:36:10;;;;;;;0.87;0.47;;;;;;;20.21;79.29;95265.09;4337755;32;20410;-55
2022/06/26 02:38:38;;;;;;;0.37;0.37;;;;;;;20.09;79.92;95273.31;4345555;32;20208;-51
2022/06/26 02:41:05;;;;;;;0.27;0.27;;;;;;;20.09;79.00;95270.63;4348627;32;20200;-50
2022/06/26 02:43:32;;;;;;;0.73;0.73;;;;;;;20.07;79.66;95262.13;4313626;32;20192;-53
2022/06/26 02:45:58;;;;;;;0.20;0.20;;;;;;;20.05;79.90;95250.91;4325555;32;20192;-52
2022/06/26 02:48:27;;;;;;;0.70;0.70;;;;;;;20.15;79.96;95261.13;4341119;32;20239;-54
2022/06/26 02:50:54;;;;;;;0.20;0.20;;;;;;;20.21;80.39;95273.16;4314925;32;20234;-53
2022/06/26 02:53:22;;;;;;;1.00;1.00;;;;;;;20.33;79.71;95283.81;4341584;32;20248;-54
2022/06/26 02:55:49;;;;;;;0.57;0.57;;;;;;;20.31;79.22;95280.69;4341429;32;20263;-54
2022/06/26 02:58:16;;;;;;;1.00;0.70;;;;;;;20.31;79.08;95302.25;4354387;32;20197;-52
2022/06/26 03:00:42;;;;;;;0.37;0.37;;;;;;;20.23;79.35;95314.00;4369703;32;20216;-50
2022/06/26 03:03:10;;;;;;;0.50;0.50;;;;;;;20.19;79.16;95310.44;4362854;32;21801;-52
2022/06/26 03:05:36;;;;;;;1.07;1.07;;;;;;;20.13;79.54;95306.50;4344121;32;20246;-51
2022/06/26 03:08:04;;;;;;;0.17;0.17;;;;;;;20.04;80.49;95305.91;4311571;32;20201;-53
2022/06/26 03:10:31;;;;;;;0.10;0.10;;;;;;;20.14;81.45;95316.94;4342015;32;20218;-53
2022/06/26 03:12:58;;;;;;;1.17;1.07;;;;;;;20.14;80.79;95324.22;4341264;32;20222;-52
2022/06/26 03:15:24;;;;;;;5.97;1.43;;;;;;;20.05;79.39;95320.94;4349105;32;20215;-52
2022/06/26 03:17:50;;;;;;;0.40;0.40;;;;;;;19.97;80.90;95328.09;4355875;32;20193;-57
2022/06/26 03:20:18;;;;;;;1.00;0.97;;;;;;;20.00;80.94;95332.00;4360835;32;20212;-54
2022/06/26 03:22:44;;;;;;;0.80;0.80;;;;;;;20.01;79.99;95328.16;4350261;32;20226;-51
2022/06/26 03:25:10;;;;;;;0.73;0.73;;;;;;;19.87;81.41;95321.34;4347039;32;20247;-53
2022/06/26 03:27:37;;;;;;;0.57;0.57;;;;;;;19.89;80.82;95319.09;4355006;32;20193;-52
2022/06/26 03:30:07;;;;;;;0.50;0.50;;;;;;;20.01;81.12;95312.78;4340419;32;20200;-53
2022/06/26 03:32:34;;;;;;;0.63;0.63;;;;;;;20.14;80.58;95322.31;4348524;32;20219;-55
2022/06/26 03:35:01;;;;;;;0.70;0.70;;;;;;;20.07;80.16;95314.06;4356643;32;20193;-53
2022/06/26 03:37:28;;;;;;;0.77;0.73;;;;;;;20.21;80.54;95318.97;4351814;32;20193;-53
2022/06/26 03:39:54;;;;;;;0.83;0.70;;;;;;;20.07;80.72;95318.69;4325538;32;20211;-55
2022/06/26 03:42:21;;;;;;;1.03;0.53;;;;;;;20.18;80.06;95322.38;4354300;32;20193;-52
2022/06/26 03:44:53;;;;;;;0.87;0.40;;;;;;;20.21;80.59;95318.97;4354853;32;20298;-56
2022/06/26 03:47:20;;;;;;;1.23;0.90;;;;;;;20.21;80.65;95324.34;4335234;32;20204;-57
2022/06/26 03:49:52;;;;;;;0.90;0.90;;;;;;;20.30;80.52;95329.53;4347392;32;20217;-52
2022/06/26 03:52:25;;;;;;;0.90;0.87;;;;;;;20.23;79.90;95338.25;4341764;32;20207;-61
2022/06/26 03:54:52;;;;;;;1.33;1.23;;;;;;;20.21;80.84;95330.53;4343938;32;20197;-53
2022/06/26 03:57:18;;;;;;;2.10;0.57;;;;;;;20.13;80.61;95344.22;4344956;32;20233;-49
2022/06/26 03:59:46;;;;;;;3.47;0.90;;;;;;;20.18;81.03;95341.22;4343333;32;20213;-54
2022/06/26 04:02:11;;;;;;;0.57;0.57;;;;;;;20.17;80.87;95345.81;4349503;32;20203;-55
2022/06/26 04:04:38;;;;;;;0.30;0.30;;;;;;;20.13;81.13;95345.00;4343547;32;20284;-55
2022/06/26 04:07:05;;;;;;;1.53;0.90;;;;;;;20.21;80.76;95348.59;4322274;32;20249;-52
2022/06/26 04:09:33;;;;;;;0.40;0.40;;;;;;;20.27;80.67;95349.88;4285586;32;20209;-52
2022/06/26 04:12:02;;;;;;;1.23;1.13;;;;;;;20.23;81.50;95355.19;4329642;32;20291;-52
2022/06/26 04:14:29;;;;;;;0.70;0.70;;;;;;;20.10;81.43;95350.31;4353082;32;20192;-56
2022/06/26 04:16:55;;;;;;;0.37;0.37;;;;;;;20.06;81.98;95354.84;4365365;32;20211;-55
2022/06/26 04:19:22;;;;;;;1.23;1.10;;;;;;;19.94;82.25;95347.66;4324055;32;20197;-53
2022/06/26 04:21:49;;;;;;;0.40;0.40;;;;;;;20.08;82.13;95347.19;4340667;32;20210;-53
2022/06/26 04:24:15;;;;;;;4.70;0.87;;;;;;;19.94;82.19;95350.38;4342742;32;20285;-54
2022/06/26 04:26:42;;;;;;;0.50;0.50;;;;;;;20.07;81.99;95353.69;4353049;32;20200;-52
2022/06/26 04:29:09;;;;;;;0.60;0.60;;;;;;;20.10;81.86;95351.09;4333236;32;20299;-53
2022/06/26 04:31:36;;;;;;;0.97;0.37;;;;;;;20.00;82.33;95361.63;4348684;32;20302;-52
2022/06/26 04:34:02;;;;;;;0.87;0.87;;;;;;;20.04;82.44;95359.78;4333614;32;20207;-54
2022/06/26 04:36:29;;;;;;;0.43;0.43;;;;;;;20.04;81.80;95360.56;4327690;32;20197;-54
2022/06/26 04:38:57;;;;;;;0.50;0.50;;;;;;;20.08;81.94;95364.12;4340444;32;20212;-54
2022/06/26 04:41:36;;;;;;;0.20;0.20;;;;;;;20.04;82.04;95359.78;4322088;32;20200;-51
2022/06/26 04:44:12;;;;;;;0.80;0.80;;;;;;;20.01;81.81;95357.78;4348549;32;20239;-50
2022/06/26 04:46:41;;;;;;;0.70;0.70;;;;;;;20.12;81.92;95365.00;4328306;32;20302;-54
2022/06/26 04:49:27;;;;;;;0.60;0.60;;;;;;;20.21;81.45;95359.37;4356450;32;20201;-51
2022/06/26 04:51:54;;;;;;;1.43;0.47;;;;;;;20.29;81.29;95363.00;4340095;32;20265;-50
2022/06/26 04:54:20;;;;;;;0.57;0.57;;;;;;;20.28;81.01;95364.91;4348600;32;20197;-53
2022/06/26 04:56:47;;;;;;;0.50;0.50;;;;;;;20.34;80.92;95358.13;4345124;32;20216;-52
2022/06/26 04:59:13;;;;;;;2.63;0.43;;;;;;;20.32;80.69;95354.22;4358229;32;20236;-54
2022/06/26 05:01:43;;;;;;;0.30;0.30;;;;;;;20.39;80.35;95363.25;4374335;32;20279;-55
2022/06/26 05:04:08;;;;;;;0.50;0.50;;;;;;;20.40;80.48;95364.81;4369714;32;20280;-51
2022/06/26 05:06:34;;;;;;;0.63;0.40;;;;;;;20.43;80.46;95364.09;4363099;32;20300;-54
2022/06/26 05:09:00;;;;;;;0.53;0.53;;;;;;;20.44;80.37;95364.88;4343964;32;20253;-54
2022/06/26 05:11:30;;;;;;;0.83;0.50;;;;;;;20.48;79.93;95368.44;4358852;32;20188;-52
2022/06/26 05:13:58;;;;;;;0.60;0.60;;;;;;;20.36;79.64;95366.63;4347424;32;20258;-53
2022/06/26 05:16:28;;;;;;;0.30;0.30;;;;;;;20.45;80.12;95352.97;4349243;32;20197;-53
2022/06/26 05:18:55;;;;;;;0.50;0.50;;;;;;;20.42;79.72;95361.75;4294794;32;20252;-51
2022/06/26 05:21:20;;;;;;;1.17;0.40;;;;;;;20.46;79.60;95360.69;4316422;32;20262;-54
2022/06/26 05:23:48;;;;;;;1.70;0.87;;;;;;;20.40;79.94;95364.03;4324280;32;20197;-54
2022/06/26 05:26:14;;;;;;;0.50;0.50;;;;;;;20.41;79.59;95363.66;4334240;32;20276;-55
2022/06/26 05:28:42;;;;;;;0.53;0.53;;;;;;;20.39;80.15;95357.84;4346562;32;20197;-53
2022/06/26 05:31:12;;;;;;;0.33;0.33;;;;;;;20.46;80.38;95365.31;4343098;32;20268;-53
2022/06/26 05:33:40;;;;;;;0.30;0.30;;;;;;;20.48;80.84;95368.44;4331266;32;20315;-55
2022/06/26 05:36:09;;;;;;;0.43;0.43;;;;;;;20.50;80.33;95366.16;4343232;32;20200;-52
2022/06/26 05:38:36;;;;;;;7.90;0.87;;;;;;;20.40;79.49;95366.72;4334597;32;20193;-54
2022/06/26 05:41:15;;;;;;;0.47;0.47;;;;;;;20.46;79.98;95363.41;4347689;32;20198;-55
2022/06/26 05:43:42;;;;;;;0.40;0.30;;;;;;;20.36;78.94;95361.25;4345335;32;20247;-51
2022/06/26 05:46:08;;;;;;;2.87;0.57;;;;;;;20.50;80.27;95369.63;4352892;32;20280;-51
2022/06/26 05:48:35;;;;;;;0.30;0.30;;;;;;;20.54;80.84;95375.09;4317266;32;20276;-52
2022/06/26 05:51:01;;;;;;;0.40;0.40;;;;;;;20.57;80.41;95364.41;4323100;32;20280;-51
2022/06/26 05:53:28;;;;;;;0.30;0.30;;;;;;;20.65;79.51;95364.50;4333664;32;20243;-54
2022/06/26 05:55:57;;;;;;;0.77;0.77;;;;;;;20.59;77.91;95370.19;4339478;32;20210;-50
2022/06/26 05:58:23;;;;;;;0.83;0.83;;;;;;;20.71;78.88;95363.09;4312592;32;20197;-55
2022/06/26 06:00:50;;;;;;;0.60;0.60;;;;;;;20.69;77.70;95370.75;4323033;32;20207;-53
2022/06/26 06:03:17;;;;;;;0.53;0.53;;;;;;;20.82;78.39;95372.16;4351315;32;20260;-53
2022/06/26 06:05:45;;;;;;;0.43;0.43;;;;;;;20.88;76.94;95373.44;4351303;32;20182;-53
2022/06/26 06:08:12;;;;;;;0.20;0.20;;;;;;;20.86;77.18;95375.69;4338803;32;20210;-53
2022/06/26 06:10:38;;;;;;;0.50;0.50;;;;;;;20.89;76.32;95372.28;4326767;32;20289;-50
2022/06/26 06:13:06;;;;;;;0.47;0.47;;;;;;;21.00;76.20;95367.06;4345935;32;20221;-53
2022/06/26 06:15:33;;;;;;;0.53;0.50;;;;;;;21.21;77.70;95362.09;4313619;32;20264;-52
2022/06/26 06:18:02;;;;;;;0.73;0.73;;;;;;;21.31;76.79;95368.81;4350620;32;20243;-52
2022/06/26 06:20:28;;;;;;;0.20;0.20;;;;;;;21.37;77.34;95365.47;4335628;32;20196;-54
2022/06/26 06:23:02;;;;;;;0.40;0.30;;;;;;;21.38;75.33;95363.53;4316790;32;20198;-55
2022/06/26 06:25:30;;;;;;;0.60;0.60;;;;;;;21.47;76.58;95369.47;4338362;32;20214;-53
2022/06/26 06:27:57;;;;;;;0.70;0.70;;;;;;;21.56;75.36;95376.19;4342878;32;20193;-54
2022/06/26 06:30:22;;;;;;;1.03;1.03;;;;;;;21.59;76.25;95367.34;4344947;32;20233;-54
2022/06/26 06:32:48;;;;;;;0.20;0.20;;;;;;;21.71;76.16;95377.16;4376532;32;20196;-52
2022/06/26 06:35:15;;;;;;;0.30;0.30;;;;;;;21.87;75.64;95368.91;4357155;32;20208;-53
2022/06/26 06:37:43;;;;;;;1.80;1.40;;;;;;;21.93;73.99;95373.66;4368665;32;20307;-54
2022/06/26 06:40:10;;;;;;;0.63;0.63;;;;;;;21.91;74.07;95370.53;4372843;32;20244;-53
2022/06/26 06:42:37;;;;;;;8.90;1.13;;;;;;;21.92;74.13;95371.31;4365317;32;20220;-55
2022/06/26 06:45:07;;;;;;;1.13;0.73;;;;;;;22.00;74.00;95372.19;4363701;32;20286;-53
2022/06/26 06:47:36;;;;;;;0.50;0.50;;;;;;;21.97;73.75;95378.31;4353869;32;20216;-56
2022/06/26 06:50:07;;;;;;;0.50;0.40;;;;;;;22.13;74.42;95376.25;4360939;32;20282;-55
2022/06/26 06:52:32;;;;;;;0.83;0.63;;;;;;;22.21;74.07;95381.41;4362186;32;20192;-52
2022/06/26 06:55:11;;;;;;;0.33;0.10;;;;;;;22.06;72.31;95379.63;4335720;32;20204;-52
2022/06/26 06:57:38;;;;;;;2.80;0.70;;;;;;;22.32;71.33;95383.44;4321622;32;20192;-52
2022/06/26 07:00:08;;;;;;;0.40;0.40;;;;;;;22.33;73.10;95385.00;4344874;32;20200;-54
2022/06/26 07:02:38;;;;;;;0.73;0.73;;;;;;;22.36;72.33;95373.47;4306011;32;20264;-55
2022/06/26 07:05:07;;;;;;;0.37;0.37;;;;;;;22.64;71.90;95373.81;4340217;32;20201;-55
2022/06/26 07:07:38;;;;;;;0.57;0.47;;;;;;;22.92;71.85;95371.44;4343530;32;20192;-53
2022/06/26 07:10:05;;;;;;;0.47;0.47;;;;;;;23.31;70.82;95377.22;4348165;32;20318;-50
2022/06/26 07:12:31;;;;;;;0.30;0.30;;;;;;;23.30;66.29;95370.25;4354588;32;20264;-53
2022/06/26 07:14:58;;;;;;;0.30;0.30;;;;;;;23.03;67.29;95374.28;4332196;32;20216;-55
2022/06/26 07:17:25;;;;;;;8.30;0.63;;;;;;;23.04;68.87;95369.63;4340278;32;20189;-51
2022/06/26 07:19:51;;;;;;;0.40;0.40;;;;;;;23.24;70.94;95368.28;4315355;32;20208;-55
2022/06/26 07:22:17;;;;;;;0.43;0.43;;;;;;;23.42;65.98;95366.50;4371191;32;20207;-54
2022/06/26 07:24:43;;;;;;;0.43;0.43;;;;;;;23.48;66.90;95359.59;4339331;32;20185;-53
2022/06/26 07:27:19;;;;;;;0.40;0.40;;;;;;;23.63;65.09;95357.78;4344568;32;20193;-54
2022/06/26 07:29:47;;;;;;;18.33;1.27;;;;;;;23.67;64.05;95361.31;4346692;32;20207;-56
2022/06/26 07:32:14;;;;;;;0.33;0.33;;;;;;;23.57;66.77;95356.56;4356995;32;20237;-52
2022/06/26 07:34:39;;;;;;;0.40;0.40;;;;;;;23.58;65.96;95358.91;4359578;32;20250;-53
2022/06/26 07:37:06;;;;;;;0.20;0.20;;;;;;;23.50;66.09;95359.19;4370563;32;20197;-54
2022/06/26 07:39:32;;;;;;;0.93;0.93;;;;;;;23.47;65.49;95360.75;4344213;32;20210;-53
2022/06/26 07:42:00;;;;;;;0.33;0.33;;;;;;;23.55;66.96;95367.78;4368595;32;20185;-53
2022/06/26 07:44:27;;;;;;;0.20;0.20;;;;;;;23.35;66.74;95360.22;4367323;32;20303;-55
2022/06/26 07:46:52;;;;;;;0.30;0.30;;;;;;;23.42;66.11;95363.00;4348072;32;20254;-51
2022/06/26 07:49:18;;;;;;;0.50;0.50;;;;;;;23.44;65.68;95360.72;4310842;32;20263;-58
2022/06/26 07:51:45;;;;;;;0.20;0.20;;;;;;;23.53;64.05;95363.91;4327361;32;20205;-53
2022/06/26 07:54:11;;;;;;;0.30;0.20;;;;;;;23.47;64.42;95362.66;4343568;32;20243;-56
2022/06/26 07:56:40;;;;;;;0.43;0.37;;;;;;;23.28;65.87;95366.34;4344857;32;20221;-54
2022/06/26 07:59:06;;;;;;;0.47;0.47;;;;;;;23.47;63.55;95365.38;4348440;32;20189;-54
2022/06/26 08:01:36;;;;;;;0.20;0.20;;;;;;;23.48;64.54;95353.41;4361332;32;20196;-52
2022/06/26 08:04:02;;;;;;;0.87;0.87;;;;;;;23.57;65.43;95351.16;4361728;32;20212;-51
2022/06/26 08:06:29;;;;;;;1.27;1.17;;;;;;;23.59;66.58;95351.56;4342842;32;20184;-54
2022/06/26 08:08:56;;;;;;;1.30;1.20;;;;;;;23.61;67.03;95351.97;4359263;32;20227;-55
2022/06/26 08:11:22;;;;;;;0.70;0.70;;;;;;;23.67;65.69;95345.06;4341020;32;20217;-55
2022/06/26 08:13:48;;;;;;;0.40;0.40;;;;;;;23.67;65.69;95342.34;4337583;32;20189;-62
2022/06/26 08:16:15;;;;;;;0.20;0.20;;;;;;;23.79;63.35;95352.09;4361709;32;20268;-49
2022/06/26 08:18:42;;;;;;;0.23;0.23;;;;;;;23.89;62.20;95346.75;4352179;32;20200;-52
2022/06/26 08:23:53;;;;;;;0.53;0.53;;;;;;;23.87;63.65;95340.16;4352608;32;20296;-54
2022/06/26 08:26:19;;;;;;;0.50;0.50;;;;;;;23.82;65.00;95337.78;4367630;32;20207;-50
2022/06/26 08:28:46;;;;;;;0.40;0.40;;;;;;;23.78;63.81;95340.47;4361977;32;20212;-53
2022/06/26 08:31:12;;;;;;;0.23;0.23;;;;;;;23.89;61.80;95341.34;4352357;32;20276;-56
2022/06/26 08:33:37;;;;;;;0.23;0.23;;;;;;;23.94;61.81;95332.81;4337813;32;22416;-55
2022/06/26 08:36:07;;;;;;;0.10;0.10;;;;;;;23.85;64.12;95326.97;4327143;32;20211;-52
2022/06/26 08:38:34;;;;;;;0.50;0.50;;;;;;;23.93;62.11;95330.50;4328374;32;20291;-54
2022/06/26 08:41:07;;;;;;;12.43;0.47;;;;;;;24.03;60.53;95329.78;4355347;32;20345;-52
2022/06/26 08:43:33;;;;;;;0.40;0.40;;;;;;;24.01;60.42;95334.03;4374270;32;20184;-53
2022/06/26 08:46:08;;;;;;;0.20;0.20;;;;;;;23.98;59.78;95322.78;4311164;32;20193;-53
2022/06/26 08:48:49;;;;;;;0.33;0.33;;;;;;;23.99;60.38;95324.34;4340919;32;20204;-55
2022/06/26 08:51:17;;;;;;;0.63;0.63;;;;;;;24.03;60.66;95327.06;4351616;32;20204;-54
2022/06/26 08:53:45;;;;;;;3.13;2.93;;;;;;;24.06;61.08;95320.13;4339093;32;20193;-52
2022/06/26 08:56:13;;;;;;;0.40;0.40;;;;;;;24.06;62.92;95314.69;4309250;32;20208;-55
2022/06/26 08:58:40;;;;;;;0.10;0.10;;;;;;;24.04;64.84;95325.12;4323518;32;20280;-55
2022/06/26 09:01:07;;;;;;;0.53;0.53;;;;;;;24.13;62.39;95325.56;4338970;32;20209;-54
2022/06/26 09:03:35;;;;;;;0.30;0.30;;;;;;;24.20;62.52;95328.31;4344848;32;20193;-55
2022/06/26 09:06:05;;;;;;;0.40;0.40;;;;;;;24.28;61.96;95324.53;4342494;32;20201;-54
2022/06/26 09:08:45;;;;;;;0.30;0.30;;;;;;;24.42;61.63;95329.22;4335426;32;20243;-54
2022/06/26 09:11:11;;;;;;;0.30;0.30;;;;;;;24.56;59.61;95330.03;4355346;32;20192;-57
2022/06/26 09:13:42;;;;;;;0.13;0.13;;;;;;;24.58;58.96;95325.00;4341488;32;20216;-54
2022/06/26 09:16:10;;;;;;;0.10;0.10;;;;;;;24.62;59.09;95327.72;4337302;32;20335;-56
2022/06/26 09:18:48;;;;;;;0.60;0.40;;;;;;;24.65;59.28;95325.03;4354776;32;20252;-53
2022/06/26 09:21:13;;;;;;;0.10;0.10;;;;;;;24.69;58.73;95318.84;4311617;32;20201;-47
2022/06/26 09:23:53;;;;;;;0.70;0.70;;;;;;;24.52;60.03;95326.56;4356300;32;20211;-48
2022/06/26 09:26:18;;;;;;;0.33;0.33;;;;;;;24.58;59.26;95330.44;4297179;32;20186;-48
2022/06/26 09:28:52;;;;;;;0.20;0.20;;;;;;;24.68;58.37;95328.91;4330793;32;20193;-46
2022/06/26 09:31:20;;;;;;;0.80;0.43;;;;;;;24.51;58.82;95325.00;4358382;32;20197;-55
2022/06/26 09:33:47;;;;;;;0.30;0.30;;;;;;;24.67;58.51;95332.78;4332618;32;20193;-44
2022/06/26 09:36:17;;;;;;;0.30;0.30;;;;;;;24.71;59.19;95330.09;4356668;32;20209;-46
2022/06/26 09:38:49;;;;;;;0.30;0.30;;;;;;;24.53;60.51;95336.22;4351300;32;20192;-48
2022/06/26 09:41:16;;;;;;;9.27;4.93;;;;;;;24.51;60.75;95327.72;4338101;32;20220;-45
2022/06/26 09:43:47;;;;;;;0.67;0.67;;;;;;;24.55;60.16;95325.75;4315864;32;20205;-49
2022/06/26 09:46:14;;;;;;;0.37;0.37;;;;;;;24.81;58.21;95323.91;4337178;32;20212;-46
2022/06/26 09:48:41;;;;;;;0.37;0.37;;;;;;;24.77;56.94;95325.81;4339659;32;20201;-49
2022/06/26 09:51:28;;;;;;;0.10;0.10;;;;;;;24.86;57.08;95318.09;4285527;32;20202;-48
2022/06/26 09:53:55;;;;;;;4.23;3.90;;;;;;;24.90;56.89;95324.31;4357646;32;20208;-47
2022/06/26 09:56:24;;;;;;;1.37;1.27;;;;;;;24.91;55.80;95325.88;4317016;32;20245;-49
2022/06/26 09:58:52;;;;;;;0.90;0.90;;;;;;;24.93;57.04;95315.41;4346446;32;20230;-50
2022/06/26 10:07:23;;;;;;;0.60;0.60;;;;;;;25.33;55.51;95306.16;4349842;32;20244;-49
2022/06/26 10:09:57;;;;;;;1.03;1.03;;;;;;;25.02;57.00;95312.34;4345835;32;20200;-56
2022/06/26 10:12:24;;;;;;;8.23;4.20;;;;;;;25.24;56.04;95309.25;4354308;32;20200;-51
2022/06/26 10:14:53;;;;;;;0.40;0.40;;;;;;;25.09;56.33;95304.97;4338089;32;20233;-48
2022/06/26 10:17:57;;;;;;;2.30;1.90;;;;;;;25.21;55.29;95307.31;4356734;32;20209;-47
2022/06/26 10:20:24;;;;;;;1.77;1.67;;;;;;;25.52;54.37;95296.84;4345908;32;20211;-46
2022/06/26 10:22:51;;;;;;;0.47;0.47;;;;;;;25.46;53.88;95295.66;4344798;32;20240;-55
2022/06/26 10:25:28;;;;;;;0.33;0.33;;;;;;;25.74;52.41;95306.53;4336520;32;20237;-47
2022/06/26 10:27:55;;;;;;;0.30;0.30;;;;;;;25.49;51.60;95295.66;4378267;32;20203;-46
2022/06/26 10:30:38;;;;;;;0.63;0.63;;;;;;;25.42;52.59;95294.88;4331612;32;20228;-51
2022/06/26 10:33:20;;;;;;;0.50;0.50;;;;;;;25.74;54.16;95292.94;4337961;32;20256;-50
2022/06/26 10:35:51;;;;;;;0.20;0.20;;;;;;;25.66;53.85;95296.84;4315750;32;20169;-48
2022/06/26 10:38:29;;;;;;;0.10;0.10;;;;;;;25.76;53.15;95290.63;4342375;32;20192;-46
2022/06/26 10:44:16;;;;;;;0.30;0.30;;;;;;;25.87;52.52;95299.50;4373768;32;20306;-48
2022/06/26 10:46:48;;;;;;;0.40;0.40;;;;;;;25.86;53.92;95291.75;4367262;32;20184;-47
2022/06/26 10:49:15;;;;;;;0.20;0.20;;;;;;;25.60;54.54;95284.78;4362099;32;20202;-50
2022/06/26 10:51:55;;;;;;;0.50;0.50;;;;;;;25.92;53.96;95279.31;4306382;32;20268;-49
2022/06/26 10:54:25;;;;;;;0.20;0.20;;;;;;;25.85;55.08;95285.53;4341101;32;20227;-49
2022/06/26 10:57:17;;;;;;;0.20;0.20;;;;;;;25.57;55.63;95280.12;4357641;32;20197;-47
2022/06/26 10:59:45;;;;;;;0.20;0.20;;;;;;;25.53;55.76;95279.38;4375070;32;20208;-47
2022/06/26 11:02:15;;;;;;;0.30;0.30;;;;;;;25.85;55.54;95265.72;4287052;32;20213;-48
2022/06/26 11:04:49;;;;;;;0.20;0.20;;;;;;;25.85;55.41;95273.88;4361309;32;20278;-47
2022/06/26 11:07:20;;;;;;;0.20;0.20;;;;;;;26.01;55.54;95264.12;4322541;32;20235;-45
2022/06/26 11:09:49;;;;;;;0.50;0.50;;;;;;;26.34;54.71;95268.31;4339948;32;20240;-45
2022/06/26 11:12:16;;;;;;;0.40;0.40;;;;;;;26.38;54.80;95276.44;4335091;32;20196;-49
2022/06/26 11:14:43;;;;;;;0.47;0.47;;;;;;;26.31;54.88;95262.88;4302208;32;20197;-47
2022/06/26 11:17:08;;;;;;;0.20;0.20;;;;;;;26.20;55.65;95267.53;4374071;32;20348;-49
2022/06/26 11:22:28;;;;;;;0.20;0.20;;;;;;;26.07;56.27;95269.16;4291826;32;20208;-48
2022/06/26 11:24:55;;;;;;;0.23;0.23;;;;;;;26.19;55.30;95274.16;4341821;32;20208;-49
2022/06/26 11:27:24;;;;;;;0.67;0.67;;;;;;;26.37;55.01;95263.25;4349385;32;20197;-49
2022/06/26 11:29:51;;;;;;;2.00;1.90;;;;;;;26.47;54.52;95271.34;4345408;32;20193;-45
2022/06/26 11:32:20;;;;;;;0.30;0.30;;;;;;;26.26;55.03;95266.75;4331448;32;20193;-46
2022/06/26 11:35:11;;;;;;;0.40;0.40;;;;;;;26.32;54.90;95267.16;4326132;32;20257;-45
2022/06/26 11:37:38;;;;;;;0.30;0.30;;;;;;;26.23;54.87;95264.03;4321239;32;20197;-49
2022/06/26 11:40:21;;;;;;;0.27;0.27;;;;;;;26.40;53.90;95270.59;4366574;32;20193;-45
2022/06/26 11:42:57;;;;;;;0.20;0.20;;;;;;;26.27;54.17;95262.84;4327541;32;20193;-46
2022/06/26 11:45:33;;;;;;;0.20;0.20;;;;;;;26.45;53.26;95262.78;4338172;32;20189;-50
2022/06/26 11:48:07;;;;;;;0.50;0.50;;;;;;;26.11;54.89;95259.81;4319849;32;20193;-46
2022/06/26 11:50:36;;;;;;;0.10;0.10;;;;;;;26.12;54.93;95260.59;4326684;32;20189;-49
2022/06/26 11:53:05;;;;;;;0.63;0.30;;;;;;;26.50;53.66;95258.88;4316909;32;20219;-46
2022/06/26 11:55:35;;;;;;;0.10;0.10;;;;;;;26.61;53.33;95262.31;4326969;32;20243;-49
2022/06/26 11:58:03;;;;;;;0.20;0.20;;;;;;;26.73;52.52;95255.66;4341411;32;20248;-45